Holland, Vermont
Current Conditions -  °F | °C
As of 11:35 AM on Wednesday 22 Oct 2014 (Local Time) from KEFK Reporting Station
Overcast Overcast  
Wind Chill: 36°   Ceiling: 300
Heat Index: 43°   Visibility: 7mi
Dew Point: 42°   Wind: 16mph
Humidity: 95%   Direction: 360°N
Pressure: 30.21"   Gusts: NA
Location:  44.9734°N, 72.0075°W
Report Text: KEFK 221535Z AUTO 36014KT 7SM OVC003 06/06 A3021 RMK AO2 T00620055
Loading
Personal Weather Stations






























Interactive Weather Map
Tropical Storm Tracking
New forecast layout! Learn more

10-Day Weather Forecast

Advertisements
Track Severe Weather on mobile